createdAt,value
2022-08-30T04:34:20.594Z,5.45
2022-08-30T04:37:07.078Z,5.65
2022-08-30T04:40:00.760Z,5.70
2022-08-30T04:42:45.880Z,5.60
2022-08-30T04:45:30.992Z,5.75
2022-08-30T04:48:17.775Z,6.10
2022-08-30T04:51:08.551Z,5.60
2022-08-30T04:53:53.734Z,6.10
2022-08-30T04:56:39.089Z,5.40
2022-08-30T04:59:24.205Z,5.63
2022-08-30T05:02:12.060Z,5.97
2022-08-30T05:05:18.005Z,7.15
2022-08-30T05:08:04.327Z,5.57
2022-08-30T05:10:51.765Z,6.03
2022-08-30T05:13:37.432Z,6.43
2022-08-30T05:16:22.576Z,8.95
2022-08-30T05:19:08.030Z,6.93
2022-08-30T05:21:53.379Z,6.80
2022-08-30T05:24:38.182Z,7.27
2022-08-30T05:27:23.080Z,5.97
2022-08-30T05:30:09.396Z,6.25
2022-08-30T05:32:55.013Z,6.10
2022-08-30T05:35:41.420Z,5.80
2022-08-30T05:38:26.506Z,6.27
2022-08-30T05:41:12.509Z,5.70
2022-08-30T05:43:59.776Z,9.10
2022-08-30T05:46:46.312Z,7.35
2022-08-30T05:49:31.514Z,8.88
2022-08-30T05:52:18.203Z,11.33
2022-08-30T05:55:04.255Z,9.32
2022-08-30T05:57:49.416Z,8.57
2022-08-30T06:00:36.610Z,10.98
2022-08-30T06:03:21.678Z,10.15
2022-08-30T06:06:07.356Z,11.63
2022-08-30T06:08:52.694Z,9.75
2022-08-30T06:11:38.184Z,9.02
2022-08-30T06:14:23.754Z,9.27
2022-08-30T06:17:09.098Z,11.45
2022-08-30T06:19:54.019Z,9.27
2022-08-30T06:22:39.710Z,9.40
2022-08-30T06:25:24.990Z,9.65
2022-08-30T06:28:11.442Z,8.90
2022-08-30T06:30:56.597Z,9.40
2022-08-30T06:33:42.807Z,11.30
2022-08-30T06:36:28.270Z,8.98
2022-08-30T06:39:14.202Z,8.93
2022-08-30T06:41:59.165Z,9.02
2022-08-30T06:44:50.962Z,10.38
2022-08-30T06:47:37.087Z,8.63
2022-08-30T06:50:22.249Z,9.02
2022-08-30T06:53:07.453Z,9.68
2022-08-30T06:55:58.472Z,8.68
2022-08-30T06:58:44.698Z,8.98
2022-08-30T07:01:30.616Z,8.90
2022-08-30T07:04:15.862Z,8.35
2022-08-30T07:07:01.323Z,8.95
2022-08-30T07:09:46.603Z,8.32
2022-08-30T07:12:31.892Z,9.52
2022-08-30T07:15:20.511Z,8.90
2022-08-30T07:18:24.699Z,9.95
2022-08-30T07:21:13.076Z,10.05
2022-08-30T07:23:59.958Z,8.48
2022-08-30T07:26:49.125Z,9.07
2022-08-30T07:29:34.154Z,9.87
2022-08-30T07:32:19.283Z,8.65
2022-08-30T07:35:05.185Z,9.80
2022-08-30T07:37:50.435Z,8.98
2022-08-30T07:40:38.206Z,8.20
2022-08-30T07:43:23.489Z,7.93
2022-08-30T07:46:08.490Z,8.50
2022-08-30T07:48:55.136Z,7.50
2022-08-30T07:51:40.785Z,7.97
2022-08-30T07:54:25.728Z,8.32
2022-08-30T07:57:10.790Z,7.20
2022-08-30T07:59:56.341Z,8.05
2022-08-30T08:02:42.429Z,6.95
2022-08-30T08:05:27.734Z,7.40
2022-08-30T08:08:13.966Z,6.50
2022-08-30T08:11:05.385Z,8.00
2022-08-30T08:13:53.334Z,7.55
2022-08-30T08:16:39.765Z,7.50
2022-08-30T08:19:25.104Z,6.93
2022-08-30T08:22:25.748Z,6.97
2022-08-30T08:25:10.933Z,5.90
2022-08-30T08:27:57.612Z,6.30
2022-08-30T08:30:47.620Z,5.78
2022-08-30T08:33:33.073Z,5.60
2022-08-30T08:36:18.560Z,5.05
2022-08-30T08:39:07.184Z,5.53
2022-08-30T08:42:08.310Z,5.55
2022-08-30T08:45:27.371Z,5.78
2022-08-30T08:48:28.831Z,4.88
2022-08-30T08:51:38.718Z,5.43
2022-08-30T08:54:27.511Z,5.27
2022-08-30T08:57:15.948Z,5.47
2022-08-30T09:00:04.801Z,4.47
2022-08-30T09:03:01.455Z,5.97
2022-08-30T09:05:47.652Z,4.78
2022-08-30T09:08:33.281Z,5.47
2022-08-30T09:11:26.310Z,4.88
2022-08-30T09:14:25.408Z,5.03
2022-08-30T09:17:18.331Z,4.88
2022-08-30T09:20:03.798Z,4.50
2022-08-30T09:22:49.082Z,5.33
2022-08-30T09:25:35.869Z,6.65
2022-08-30T09:28:43.451Z,6.40
2022-08-30T09:31:32.424Z,6.90
2022-08-30T09:34:21.739Z,7.85
2022-08-30T09:37:26.168Z,8.13
2022-08-30T09:40:26.748Z,7.95
2022-08-30T09:43:18.205Z,8.75
2022-08-30T09:46:03.510Z,10.20
2022-08-30T09:48:48.938Z,8.90
2022-08-30T09:51:50.516Z,8.33
2022-08-30T09:54:52.655Z,7.90
2022-08-30T09:57:56.621Z,6.88
2022-08-30T10:00:55.954Z,7.20
2022-08-30T10:03:47.184Z,7.85
2022-08-30T10:06:46.060Z,7.20
2022-08-30T10:09:58.767Z,6.78
2022-08-30T10:13:00.196Z,6.40
2022-08-30T10:15:45.712Z,7.35
2022-08-30T10:18:40.300Z,6.82
2022-08-30T10:21:35.785Z,6.63
2022-08-30T10:24:32.774Z,7.28
2022-08-30T10:28:02.409Z,6.30
2022-08-30T10:30:57.024Z,6.57
2022-08-30T10:33:46.952Z,6.03
2022-08-30T10:36:40.420Z,6.00
2022-08-30T10:39:31.592Z,5.43
2022-08-30T10:42:25.541Z,6.10
2022-08-30T10:45:15.212Z,5.50
2022-08-30T10:48:12.198Z,5.88
2022-08-30T10:51:07.033Z,5.83
2022-08-30T10:53:57.563Z,5.35
2022-08-30T10:56:43.941Z,5.18
2022-08-30T10:59:29.300Z,6.07
2022-08-30T11:02:42.731Z,6.63
2022-08-30T11:06:12.723Z,5.70
2022-08-30T11:09:09.743Z,6.10
2022-08-30T11:12:22.600Z,6.05
2022-08-30T11:15:15.463Z,5.70
2022-08-30T11:18:09.345Z,5.68
2022-08-30T11:21:16.210Z,5.40
2022-08-30T11:24:12.606Z,5.20
2022-08-30T11:27:00.922Z,4.70
2022-08-30T11:29:47.511Z,4.93
2022-08-30T11:33:15.539Z,4.70
2022-08-30T11:36:00.911Z,4.60
2022-08-30T11:38:46.588Z,4.90
2022-08-30T11:41:39.468Z,4.85
2022-08-30T11:44:31.410Z,4.85
2022-08-30T11:47:38.673Z,5.75
2022-08-30T11:50:34.418Z,6.27
2022-08-30T11:53:41.826Z,5.07
2022-08-30T11:57:04.692Z,5.43
2022-08-30T12:00:28.656Z,5.05
2022-08-30T12:03:14.101Z,5.20
2022-08-30T12:06:06.385Z,5.00
2022-08-30T12:08:56.465Z,6.35
2022-08-30T12:11:54.759Z,5.93
2022-08-30T12:14:52.631Z,6.10
2022-08-30T12:18:16.429Z,6.40
2022-08-30T12:21:22.463Z,6.53
2022-08-30T12:24:41.618Z,5.90
2022-08-30T12:27:33.314Z,6.32
2022-08-30T12:30:27.044Z,7.20
2022-08-30T12:33:22.836Z,6.25
2022-08-30T12:36:34.206Z,6.07
2022-08-30T12:39:27.087Z,5.95
2022-08-30T12:42:26.970Z,5.18
2022-08-30T12:45:15.814Z,5.07
2022-08-30T12:48:07.899Z,4.65
2022-08-30T12:50:56.891Z,5.53
2022-08-30T12:53:45.750Z,5.00
2022-08-30T12:56:55.274Z,5.00
2022-08-30T12:59:43.188Z,6.55
2022-08-30T13:02:51.998Z,5.00
2022-08-30T13:05:44.535Z,6.03
2022-08-30T13:08:51.717Z,4.68
2022-08-30T13:11:37.379Z,5.43
2022-08-30T13:14:36.972Z,5.95
2022-08-30T13:17:27.699Z,5.45
2022-08-30T13:20:25.488Z,6.20
2022-08-30T13:23:11.287Z,5.68
2022-08-30T13:25:56.459Z,5.45
2022-08-30T13:28:49.527Z,4.90
2022-08-30T13:31:36.913Z,4.80
2022-08-30T13:34:22.847Z,5.70
2022-08-30T13:40:19.422Z,4.90
2022-08-30T13:43:04.819Z,4.97
2022-08-30T13:45:50.451Z,5.47
2022-08-30T13:48:36.333Z,5.27
2022-08-30T13:51:21.703Z,5.88
2022-08-30T13:54:08.795Z,5.32
2022-08-30T13:56:55.560Z,5.13
2022-08-30T13:59:40.657Z,5.50
2022-08-30T14:02:25.773Z,4.30
2022-08-30T14:05:30.828Z,5.88
2022-08-30T14:11:26.590Z,4.75
2022-08-30T14:14:16.103Z,4.63
2022-08-30T14:17:06.290Z,5.17
2022-08-30T14:19:51.439Z,5.00
2022-08-30T14:22:38.855Z,4.93
2022-08-30T14:25:24.113Z,4.53
2022-08-30T14:28:11.751Z,6.88
2022-08-30T14:30:57.555Z,4.70
2022-08-30T14:33:42.990Z,4.40
2022-08-30T14:36:28.163Z,4.20
2022-08-30T14:39:19.214Z,4.97
2022-08-30T14:42:07.561Z,4.78
2022-08-30T14:44:56.633Z,5.07
2022-08-30T14:47:42.600Z,4.40
2022-08-30T14:50:28.067Z,6.20
2022-08-30T14:53:13.205Z,4.10
2022-08-30T14:55:58.880Z,5.43
2022-08-30T14:58:44.182Z,4.40
2022-08-30T15:01:31.362Z,4.65
2022-08-30T15:04:17.201Z,4.20
2022-08-30T15:07:03.186Z,6.50
2022-08-30T15:09:48.872Z,4.32
2022-08-30T15:12:34.085Z,5.83
2022-08-30T15:15:21.095Z,4.43
2022-08-30T15:18:06.402Z,4.45
2022-08-30T15:20:51.998Z,4.82
2022-08-30T15:23:39.283Z,4.45
2022-08-30T15:26:24.878Z,4.63
2022-08-30T15:29:12.067Z,4.32
2022-08-30T15:31:57.872Z,5.25
2022-08-30T15:34:43.210Z,4.70
2022-08-30T15:37:28.695Z,3.90
2022-08-30T15:40:15.900Z,4.60
2022-08-30T15:43:05.025Z,3.85
2022-08-30T15:45:50.407Z,5.03
2022-08-30T15:48:38.962Z,5.20
2022-08-30T15:51:41.228Z,4.20
2022-08-30T15:54:27.605Z,4.50
2022-08-30T15:57:12.955Z,4.45
2022-08-30T15:59:58.875Z,5.18
2022-08-30T16:02:48.053Z,5.13
2022-08-30T16:05:33.191Z,4.15
2022-08-30T16:08:19.436Z,4.57
2022-08-30T16:11:07.242Z,4.07
2022-08-30T16:13:54.714Z,5.05
2022-08-30T16:16:41.100Z,3.50
2022-08-30T16:19:26.908Z,3.90
2022-08-30T16:22:12.338Z,3.80
2022-08-30T16:24:59.195Z,3.33
2022-08-30T16:27:44.315Z,5.65
2022-08-30T16:30:30.065Z,4.88
2022-08-30T16:33:15.429Z,4.35
2022-08-30T16:36:01.010Z,4.03
2022-08-30T16:38:46.089Z,4.10
2022-08-30T16:41:32.424Z,4.15
2022-08-30T16:44:18.563Z,3.72
2022-08-30T16:47:04.248Z,3.70
2022-08-30T16:49:49.584Z,4.70
2022-08-30T16:52:35.406Z,4.07
2022-08-30T16:55:21.097Z,3.67
2022-08-30T16:58:08.773Z,4.65
2022-08-30T17:00:56.480Z,3.83
2022-08-30T17:03:41.914Z,4.23
2022-08-30T17:06:28.411Z,4.47
2022-08-30T17:09:15.059Z,4.53
2022-08-30T17:12:00.383Z,3.90
2022-08-30T17:14:49.668Z,3.95
2022-08-30T17:17:34.697Z,5.13
2022-08-30T17:20:19.950Z,3.13
2022-08-30T17:23:05.536Z,4.13
2022-08-30T17:25:50.809Z,3.97
2022-08-30T17:28:36.048Z,4.63
2022-08-30T17:31:21.127Z,4.73
2022-08-30T17:34:06.609Z,4.15
2022-08-30T17:36:54.816Z,4.82
2022-08-30T17:39:40.086Z,4.10
2022-08-30T17:42:29.844Z,4.10
2022-08-30T17:45:17.004Z,4.07
2022-08-30T17:48:02.480Z,5.60
2022-08-30T17:50:55.725Z,4.85
2022-08-30T17:53:42.038Z,4.63
2022-08-30T17:56:29.136Z,4.10
2022-08-30T17:59:19.571Z,6.17
2022-08-30T18:02:05.419Z,4.35
2022-08-30T18:04:57.023Z,4.75
2022-08-30T18:07:42.400Z,4.18
2022-08-30T18:10:34.733Z,3.95
2022-08-30T18:13:20.023Z,4.97
2022-08-30T18:16:05.752Z,4.95
2022-08-30T18:18:57.003Z,4.45
2022-08-30T18:21:43.039Z,3.50
2022-08-30T18:24:28.023Z,4.07
2022-08-30T18:27:13.371Z,4.40
2022-08-30T18:29:58.560Z,3.75
2022-08-30T18:32:44.436Z,5.07
2022-08-30T18:35:29.644Z,5.05
2022-08-30T18:38:17.529Z,4.97
2022-08-30T18:41:07.324Z,3.55
2022-08-30T18:44:10.949Z,4.40
2022-08-30T18:47:00.857Z,4.93
2022-08-30T18:49:46.711Z,5.00
2022-08-30T18:52:32.515Z,4.82
2022-08-30T18:55:18.498Z,5.60
2022-08-30T18:58:04.408Z,5.73
2022-08-30T19:00:51.204Z,3.70
2022-08-30T19:03:37.287Z,4.22
2022-08-30T19:06:22.699Z,4.57
2022-08-30T19:09:09.107Z,4.53
2022-08-30T19:11:54.624Z,6.93
2022-08-30T19:14:40.155Z,3.78
2022-08-30T19:17:26.425Z,4.95
2022-08-30T19:20:14.807Z,5.72
2022-08-30T19:23:09.697Z,4.40
2022-08-30T19:25:55.916Z,4.73
2022-08-30T19:28:43.393Z,6.43
2022-08-30T19:31:28.307Z,4.05
2022-08-30T19:34:15.280Z,4.85
2022-08-30T19:37:00.694Z,4.15
2022-08-30T19:39:46.678Z,4.37
2022-08-30T19:42:32.505Z,4.82
2022-08-30T19:45:21.604Z,5.38
2022-08-30T19:48:07.166Z,4.20
2022-08-30T19:50:53.101Z,4.93
2022-08-30T19:53:40.043Z,5.53
2022-08-30T19:56:25.442Z,5.93
2022-08-30T19:59:10.715Z,7.20
2022-08-30T20:01:56.380Z,4.45
2022-08-30T20:04:41.622Z,4.93
2022-08-30T20:07:31.041Z,5.10
2022-08-30T20:10:19.700Z,5.40
2022-08-30T20:13:05.704Z,5.63
2022-08-30T20:15:58.503Z,3.60
2022-08-30T20:18:45.115Z,5.65
2022-08-30T20:21:30.684Z,4.57
2022-08-30T20:24:16.028Z,5.15
2022-08-30T20:27:03.538Z,6.07
2022-08-30T20:29:49.263Z,4.90
2022-08-30T20:32:37.207Z,5.22
2022-08-30T20:35:23.708Z,5.67
2022-08-30T20:38:09.737Z,5.80
2022-08-30T20:40:58.590Z,5.45
2022-08-30T20:43:44.197Z,6.47
2022-08-30T20:46:33.878Z,5.70
2022-08-30T20:49:20.440Z,4.77
2022-08-30T20:52:06.205Z,3.83
2022-08-30T20:54:54.982Z,4.10
2022-08-30T20:57:40.312Z,5.72
2022-08-30T22:05:29.377Z,3.40
2022-08-30T22:08:14.564Z,3.80
2022-08-30T22:10:59.740Z,3.40
2022-08-30T22:13:48.020Z,3.50
2022-08-30T22:16:33.957Z,5.13
2022-08-30T22:19:23.052Z,3.20
2022-08-30T22:22:09.003Z,4.47
2022-08-30T22:24:54.383Z,3.95
2022-08-30T22:27:39.881Z,3.33
2022-08-30T22:30:25.161Z,4.68
2022-08-30T22:33:12.982Z,7.20
2022-08-30T22:35:58.756Z,3.87
2022-08-30T22:38:44.031Z,3.47
2022-08-30T22:41:31.427Z,4.15
2022-08-30T22:44:17.319Z,4.18
2022-08-30T22:47:02.561Z,5.70
2022-08-30T22:49:47.708Z,4.73
2022-08-30T22:52:33.385Z,5.07
2022-08-30T22:55:18.826Z,5.70
2022-08-30T22:58:03.979Z,3.47
